Federal Sable — V7WS4 — position and weather

sailwx.info

Track history (hours):
 
Tides and Currents Weather Stations Pressure Air Temp Water Temp Dewpoint Dewpoint Depression Visibility Wind Speed Wind Dir Waves Ship Positions

Federal Sable

Last reported at 2016-Nov-09 08:29 UTC. Time now 2016-Dec-03 09:44 UTC.
Position S 34°47' W 057°31'.
Warning: this ship's position is 24 days out of date.

Length 190 m; draft 10.5 m.

Type: Cargo ship. MMSI: 538004380.

Date/timePositionNaut miles runAvg speedWind from/ knotsBaromVisibWave heightAir tempDewpointWater temp
2016-Nov-09 08:29S 34°47' W 057°31'1111.7
2016-Nov-09 07:33S 34°44' W 057°43'7 3.5
2016-Nov-09 05:31S 34°43' W 057°52'0 0.1
2016-Nov-09 04:31S 34°43' W 057°52'0 0.1
2016-Nov-09 02:28S 34°43' W 057°52'13 4.1
2016-Nov-08 23:21S 34°38' W 058°07'  
2016-Nov-06 10:33S 33°02' W 060°35'0 0.0
2016-Nov-06 08:21S 33°02' W 060°35'91 4.5
2016-Nov-05 12:11S 33°55' W 059°06'6 9.4
2016-Nov-05 11:33S 33°56' W 058°59'6 5.9
2016-Nov-05 10:33S 33°56' W 058°52'10 9.6
2016-Nov-05 09:33S 33°54' W 058°41'11 9.0
2016-Nov-05 08:21S 33°54' W 058°28'37 9.7
2016-Nov-05 04:33S 34°23' W 058°00'2110.5
2016-Nov-05 02:33S 34°43' W 057°53'7 6.7
2016-Nov-05 01:33S 34°44' W 057°45'2713.3
2016-Nov-04 23:33S 34°56' W 057°16'1312.8
2016-Nov-04 22:33S 35°06' W 057°06'1212.0
2016-Nov-04 21:33S 35°10' W 056°52'1312.8
2016-Nov-04 20:33S 35°10' W 056°37'  
2016-Nov-01 23:33S 25°43' W 047°08'3812.8
2016-Nov-01 20:33S 25°08' W 046°51'1312.9
2016-Nov-01 19:33S 24°56' W 046°46'64 9.1
2016-Nov-01 12:33S 23°57' W 046°19'0 0.0
2016-Nov-01 03:33S 23°57' W 046°19'0 0.0
2016-Nov-01 02:27S 23°57' W 046°19'0 0.0
2016-Nov-01 00:33S 23°57' W 046°19'0 0.0
2016-Oct-31 23:30S 23°57' W 046°19'0 0.0
2016-Oct-31 22:33S 23°57' W 046°19'0 0.0
2016-Oct-31 20:27S 23°57' W 046°19'0 0.0
2016-Oct-31 19:33S 23°57' W 046°19'0 0.0
2016-Oct-31 18:33S 23°57' W 046°19'0 0.0
2016-Oct-31 13:33S 23°57' W 046°19'0 0.0
2016-Oct-31 12:33S 23°57' W 046°19'0 0.0
2016-Oct-31 10:33S 23°57' W 046°19'0 0.0
2016-Oct-31 09:33S 23°57' W 046°19'0 0.0
2016-Oct-31 08:30S 23°57' W 046°19'0 0.0
2016-Oct-31 07:33S 23°57' W 046°19'0 0.0
2016-Oct-31 03:33S 23°57' W 046°19'0 0.0
2016-Oct-30 20:33S 23°57' W 046°19'0 0.0
2016-Oct-30 13:30S 23°57' W 046°19'0 0.0
2016-Oct-30 12:33S 23°57' W 046°19'0 0.0
2016-Oct-30 11:30S 23°57' W 046°19'0 0.0
2016-Oct-30 08:30S 23°57' W 046°19'  
Track history (hours):
 
Tides and Currents Weather Stations Pressure Air Temp Water Temp Dewpoint Dewpoint Depression Visibility Wind Speed Wind Dir Waves Ship Positions

Federal Sable

Last reported at 2016-Nov-09 08:29 UTC. Time now 2016-Dec-03 09:44 UTC.
Position S 34°47' W 057°31'.
Warning: this ship's position is 24 days out of date.

Length 190 m; draft 10.5 m.

Type: Cargo ship. MMSI: 538004380.

Date/timePositionNaut miles runAvg speedWind from/ knotsBaromVisibWave heightAir tempDewpointWater temp
2016-Nov-09 08:29S 34°47' W 057°31'1111.7
2016-Nov-09 07:33S 34°44' W 057°43'7 3.5
2016-Nov-09 05:31S 34°43' W 057°52'0 0.1
2016-Nov-09 04:31S 34°43' W 057°52'0 0.1
2016-Nov-09 02:28S 34°43' W 057°52'13 4.1
2016-Nov-08 23:21S 34°38' W 058°07'  
2016-Nov-06 10:33S 33°02' W 060°35'0 0.0
2016-Nov-06 08:21S 33°02' W 060°35'91 4.5
2016-Nov-05 12:11S 33°55' W 059°06'6 9.4
2016-Nov-05 11:33S 33°56' W 058°59'6 5.9
2016-Nov-05 10:33S 33°56' W 058°52'10 9.6
2016-Nov-05 09:33S 33°54' W 058°41'11 9.0
2016-Nov-05 08:21S 33°54' W 058°28'37 9.7
2016-Nov-05 04:33S 34°23' W 058°00'2110.5
2016-Nov-05 02:33S 34°43' W 057°53'7 6.7
2016-Nov-05 01:33S 34°44' W 057°45'2713.3
2016-Nov-04 23:33S 34°56' W 057°16'1312.8
2016-Nov-04 22:33S 35°06' W 057°06'1212.0
2016-Nov-04 21:33S 35°10' W 056°52'1312.8
2016-Nov-04 20:33S 35°10' W 056°37'  
2016-Nov-01 23:33S 25°43' W 047°08'3812.8
2016-Nov-01 20:33S 25°08' W 046°51'1312.9
2016-Nov-01 19:33S 24°56' W 046°46'64 9.1
2016-Nov-01 12:33S 23°57' W 046°19'0 0.0
2016-Nov-01 03:33S 23°57' W 046°19'0 0.0
2016-Nov-01 02:27S 23°57' W 046°19'0 0.0
2016-Nov-01 00:33S 23°57' W 046°19'0 0.0
2016-Oct-31 23:30S 23°57' W 046°19'0 0.0
2016-Oct-31 22:33S 23°57' W 046°19'0 0.0
2016-Oct-31 20:27S 23°57' W 046°19'0 0.0
2016-Oct-31 19:33S 23°57' W 046°19'0 0.0
2016-Oct-31 18:33S 23°57' W 046°19'0 0.0
2016-Oct-31 13:33S 23°57' W 046°19'0 0.0
2016-Oct-31 12:33S 23°57' W 046°19'0 0.0
2016-Oct-31 10:33S 23°57' W 046°19'0 0.0
2016-Oct-31 09:33S 23°57' W 046°19'0 0.0
2016-Oct-31 08:30S 23°57' W 046°19'0 0.0
2016-Oct-31 07:33S 23°57' W 046°19'0 0.0
2016-Oct-31 03:33S 23°57' W 046°19'0 0.0
2016-Oct-30 20:33S 23°57' W 046°19'0 0.0
2016-Oct-30 13:30S 23°57' W 046°19'0 0.0
2016-Oct-30 12:33S 23°57' W 046°19'0 0.0
2016-Oct-30 11:30S 23°57' W 046°19'0 0.0
2016-Oct-30 08:30S 23°57' W 046°19'  

Dump ship's entire track history